sensor_id;sensor_type;location;lat;lon;timestamp;pressure;altitude;pressure_sealevel;temperature;humidity
30935;BME280;51033;42.648;23.292;2024-02-26T00:00:26;93417.41;;;9.62;54.08
30935;BME280;51033;42.648;23.292;2024-02-26T00:02:52;93407.88;;;9.61;53.93
30935;BME280;51033;42.648;23.292;2024-02-26T00:05:17;93416.59;;;9.70;53.98
30935;BME280;51033;42.648;23.292;2024-02-26T00:07:42;93402.22;;;9.71;53.76
30935;BME280;51033;42.648;23.292;2024-02-26T00:10:09;93407.22;;;9.72;53.43
30935;BME280;51033;42.648;23.292;2024-02-26T00:12:34;93385.97;;;9.64;52.88
30935;BME280;51033;42.648;23.292;2024-02-26T00:14:59;93405.19;;;9.78;52.75
30935;BME280;51033;42.648;23.292;2024-02-26T00:17:25;93418.00;;;9.76;52.82
30935;BME280;51033;42.648;23.292;2024-02-26T00:19:51;93410.19;;;9.71;53.11
30935;BME280;51033;42.648;23.292;2024-02-26T00:22:16;93402.41;;;9.66;53.20
30935;BME280;51033;42.648;23.292;2024-02-26T00:24:42;93405.34;;;9.73;53.43
30935;BME280;51033;42.648;23.292;2024-02-26T00:27:07;93402.84;;;9.76;53.49
30935;BME280;51033;42.648;23.292;2024-02-26T00:29:32;93409.84;;;9.81;53.57
30935;BME280;51033;42.648;23.292;2024-02-26T00:31:58;93400.16;;;9.85;53.58
30935;BME280;51033;42.648;23.292;2024-02-26T00:34:24;93374.56;;;9.72;53.36
30935;BME280;51033;42.648;23.292;2024-02-26T00:36:49;93384.03;;;9.90;53.44
30935;BME280;51033;42.648;23.292;2024-02-26T00:39:14;93390.09;;;9.99;53.38
30935;BME280;51033;42.648;23.292;2024-02-26T00:41:40;93386.47;;;10.04;53.16
30935;BME280;51033;42.648;23.292;2024-02-26T00:44:06;93374.81;;;9.96;53.46
30935;BME280;51033;42.648;23.292;2024-02-26T00:46:32;93364.47;;;9.95;53.61
30935;BME280;51033;42.648;23.292;2024-02-26T00:48:57;93377.22;;;10.10;53.54
30935;BME280;51033;42.648;23.292;2024-02-26T00:51:22;93375.34;;;10.10;53.61
30935;BME280;51033;42.648;23.292;2024-02-26T00:53:48;93355.25;;;10.01;53.60
30935;BME280;51033;42.648;23.292;2024-02-26T00:56:13;93372.22;;;10.17;53.61
30935;BME280;51033;42.648;23.292;2024-02-26T00:58:39;93366.50;;;9.98;53.43
30935;BME280;51033;42.648;23.292;2024-02-26T01:01:04;93331.22;;;9.88;53.58
30935;BME280;51033;42.648;23.292;2024-02-26T01:03:30;93364.44;;;10.03;53.33
30935;BME280;51033;42.648;23.292;2024-02-26T01:05:55;93351.38;;;9.89;53.75
30935;BME280;51033;42.648;23.292;2024-02-26T01:08:20;93364.44;;;10.03;53.99
30935;BME280;51033;42.648;23.292;2024-02-26T01:10:46;93360.97;;;10.11;53.44
30935;BME280;51033;42.648;23.292;2024-02-26T01:13:11;93329.72;;;9.79;53.95
30935;BME280;51033;42.648;23.292;2024-02-26T01:15:37;93359.91;;;9.66;55.18
30935;BME280;51033;42.648;23.292;2024-02-26T01:18:02;93354.53;;;9.83;54.86
30935;BME280;51033;42.648;23.292;2024-02-26T01:20:28;93355.25;;;10.01;54.54
30935;BME280;51033;42.648;23.292;2024-02-26T01:22:53;93356.72;;;10.19;54.00
30935;BME280;51033;42.648;23.292;2024-02-26T01:25:18;93346.78;;;10.07;54.24
30935;BME280;51033;42.648;23.292;2024-02-26T01:27:44;93357.84;;;10.09;54.45
30935;BME280;51033;42.648;23.292;2024-02-26T01:30:10;93351.84;;;9.92;55.04
30935;BME280;51033;42.648;23.292;2024-02-26T01:32:35;93336.81;;;9.96;54.81
30935;BME280;51033;42.648;23.292;2024-02-26T01:35:01;93350.97;;;10.08;54.85
30935;BME280;51033;42.648;23.292;2024-02-26T01:37:28;93346.13;;;10.10;54.72
30935;BME280;51033;42.648;23.292;2024-02-26T01:39:55;93349.81;;;10.18;54.67
30935;BME280;51033;42.648;23.292;2024-02-26T01:42:20;93347.63;;;10.20;54.09
30935;BME280;51033;42.648;23.292;2024-02-26T01:44:46;93309.78;;;9.94;54.51
30935;BME280;51033;42.648;23.292;2024-02-26T01:47:13;93343.16;;;10.12;54.79
30935;BME280;51033;42.648;23.292;2024-02-26T01:49:39;93321.94;;;10.03;54.43
30935;BME280;51033;42.648;23.292;2024-02-26T01:52:06;93329.09;;;10.11;54.38
30935;BME280;51033;42.648;23.292;2024-02-26T01:54:36;93329.53;;;10.13;53.90
30935;BME280;51033;42.648;23.292;2024-02-26T01:57:04;93334.03;;;10.21;53.77
30935;BME280;51033;42.648;23.292;2024-02-26T01:59:30;93327.16;;;10.20;53.87
30935;BME280;51033;42.648;23.292;2024-02-26T02:01:58;93337.59;;;10.25;53.91
30935;BME280;51033;42.648;23.292;2024-02-26T02:04:27;93330.84;;;10.28;53.72
30935;BME280;51033;42.648;23.292;2024-02-26T02:06:53;93341.81;;;10.26;54.09
30935;BME280;51033;42.648;23.292;2024-02-26T02:09:18;93333.84;;;10.26;53.99
30935;BME280;51033;42.648;23.292;2024-02-26T02:11:44;93342.09;;;10.33;53.86
30935;BME280;51033;42.648;23.292;2024-02-26T02:14:10;93321.66;;;10.25;53.39
30935;BME280;51033;42.648;23.292;2024-02-26T02:16:35;93324.94;;;10.22;53.82
30935;BME280;51033;42.648;23.292;2024-02-26T02:19:00;93334.47;;;10.23;54.16
30935;BME280;51033;42.648;23.292;2024-02-26T02:21:26;93330.91;;;10.19;54.52
30935;BME280;51033;42.648;23.292;2024-02-26T02:23:51;93336.72;;;10.13;54.67
30935;BME280;51033;42.648;23.292;2024-02-26T02:26:17;93334.03;;;9.92;55.40
30935;BME280;51033;42.648;23.292;2024-02-26T02:28:44;93300.97;;;9.81;54.90
30935;BME280;51033;42.648;23.292;2024-02-26T02:31:11;93316.63;;;10.03;54.88
30935;BME280;51033;42.648;23.292;2024-02-26T02:33:37;93321.84;;;10.20;54.51
30935;BME280;51033;42.648;23.292;2024-02-26T02:36:02;93328.25;;;10.19;54.32
30935;BME280;51033;42.648;23.292;2024-02-26T02:38:28;93342.44;;;10.23;54.47
30935;BME280;51033;42.648;23.292;2024-02-26T02:40:55;93326.88;;;10.13;54.42
30935;BME280;51033;42.648;23.292;2024-02-26T02:43:20;93297.88;;;10.00;54.66
30935;BME280;51033;42.648;23.292;2024-02-26T02:45:45;93331.50;;;10.25;54.14
30935;BME280;51033;42.648;23.292;2024-02-26T02:48:11;93331.94;;;10.06;54.72
30935;BME280;51033;42.648;23.292;2024-02-26T02:50:37;93338.81;;;10.07;55.05
30935;BME280;51033;42.648;23.292;2024-02-26T02:53:02;93352.66;;;10.13;54.74
30935;BME280;51033;42.648;23.292;2024-02-26T02:55:27;93354.09;;;10.10;54.84
30935;BME280;51033;42.648;23.292;2024-02-26T02:57:53;93344.03;;;10.24;54.52
30935;BME280;51033;42.648;23.292;2024-02-26T03:00:18;93345.44;;;10.22;54.58
30935;BME280;51033;42.648;23.292;2024-02-26T03:02:44;93344.38;;;10.14;55.04
30935;BME280;51033;42.648;23.292;2024-02-26T03:05:10;93337.59;;;9.96;55.48
30935;BME280;51033;42.648;23.292;2024-02-26T03:07:35;93351.63;;;10.05;55.37
30935;BME280;51033;42.648;23.292;2024-02-26T03:10:01;93341.00;;;10.05;55.01
30935;BME280;51033;42.648;23.292;2024-02-26T03:12:26;93355.66;;;10.11;55.00
30935;BME280;51033;42.648;23.292;2024-02-26T03:14:53;93326.97;;;9.96;55.12
30935;BME280;51033;42.648;23.292;2024-02-26T03:17:20;93344.19;;;10.19;54.89
30935;BME280;51033;42.648;23.292;2024-02-26T03:19:46;93350.25;;;10.28;54.76
30935;BME280;51033;42.648;23.292;2024-02-26T03:22:12;93341.19;;;10.29;54.89
30935;BME280;51033;42.648;23.292;2024-02-26T03:24:38;93323.22;;;10.26;54.70
30935;BME280;51033;42.648;23.292;2024-02-26T03:27:03;93326.28;;;10.37;54.59
30935;BME280;51033;42.648;23.292;2024-02-26T03:29:34;93322.22;;;10.40;54.36
30935;BME280;51033;42.648;23.292;2024-02-26T03:31:59;93321.72;;;10.46;54.16
30935;BME280;51033;42.648;23.292;2024-02-26T03:34:25;93319.69;;;10.43;54.05
30935;BME280;51033;42.648;23.292;2024-02-26T03:36:51;93291.97;;;10.23;53.86
30935;BME280;51033;42.648;23.292;2024-02-26T03:39:17;93326.44;;;10.41;53.82
30935;BME280;51033;42.648;23.292;2024-02-26T03:41:42;93327.66;;;10.43;53.79
30935;BME280;51033;42.648;23.292;2024-02-26T03:44:07;93330.19;;;10.40;53.66
30935;BME280;51033;42.648;23.292;2024-02-26T03:46:33;93327.69;;;10.35;53.74
30935;BME280;51033;42.648;23.292;2024-02-26T03:48:58;93323.94;;;10.36;53.61
30935;BME280;51033;42.648;23.292;2024-02-26T03:51:23;93311.75;;;10.35;53.52
30935;BME280;51033;42.648;23.292;2024-02-26T03:53:49;93306.34;;;10.22;53.59
30935;BME280;51033;42.648;23.292;2024-02-26T03:56:14;93318.34;;;10.28;53.64
30935;BME280;51033;42.648;23.292;2024-02-26T03:58:40;93292.81;;;10.15;53.90
30935;BME280;51033;42.648;23.292;2024-02-26T04:01:08;93313.03;;;10.28;54.04
30935;BME280;51033;42.648;23.292;2024-02-26T04:03:34;93313.22;;;10.23;54.03
30935;BME280;51033;42.648;23.292;2024-02-26T04:05:59;93314.19;;;10.19;54.06
30935;BME280;51033;42.648;23.292;2024-02-26T04:08:25;93302.06;;;10.09;54.40
30935;BME280;51033;42.648;23.292;2024-02-26T04:10:50;93319.25;;;10.12;54.16
30935;BME280;51033;42.648;23.292;2024-02-26T04:13:17;93316.41;;;10.17;54.21
30935;BME280;51033;42.648;23.292;2024-02-26T04:15:43;93316.84;;;10.19;54.23
30935;BME280;51033;42.648;23.292;2024-02-26T04:18:08;93289.09;;;10.08;53.88
30935;BME280;51033;42.648;23.292;2024-02-26T04:20:33;93298.91;;;10.16;54.40
30935;BME280;51033;42.648;23.292;2024-02-26T04:22:59;93299.41;;;10.09;54.22
30935;BME280;51033;42.648;23.292;2024-02-26T04:25:24;93307.31;;;10.18;54.48
30935;BME280;51033;42.648;23.292;2024-02-26T04:27:50;93280.81;;;10.09;54.23
30935;BME280;51033;42.648;23.292;2024-02-26T04:30:15;93284.06;;;10.15;54.28
30935;BME280;51033;42.648;23.292;2024-02-26T04:32:42;93256.53;;;9.90;53.90
30935;BME280;51033;42.648;23.292;2024-02-26T04:35:07;93292.03;;;10.15;54.40
30935;BME280;51033;42.648;23.292;2024-02-26T04:37:33;93296.69;;;10.18;54.34
30935;BME280;51033;42.648;23.292;2024-02-26T04:39:59;93279.69;;;10.10;54.21
30935;BME280;51033;42.648;23.292;2024-02-26T04:42:25;93303.44;;;10.15;54.22
30935;BME280;51033;42.648;23.292;2024-02-26T04:44:50;93289.69;;;10.13;54.65
30935;BME280;51033;42.648;23.292;2024-02-26T04:47:15;93260.03;;;9.82;54.71
30935;BME280;51033;42.648;23.292;2024-02-26T04:49:41;93300.97;;;10.10;55.07
30935;BME280;51033;42.648;23.292;2024-02-26T04:52:06;93312.03;;;10.12;54.76
30935;BME280;51033;42.648;23.292;2024-02-26T04:54:31;93319.09;;;10.08;54.77
30935;BME280;51033;42.648;23.292;2024-02-26T04:56:57;93314.84;;;10.16;54.94
30935;BME280;51033;42.648;23.292;2024-02-26T04:59:22;93313.41;;;10.18;55.11
30935;BME280;51033;42.648;23.292;2024-02-26T05:01:47;93307.97;;;10.15;54.74
30935;BME280;51033;42.648;23.292;2024-02-26T05:04:13;93325.13;;;10.17;55.34
30935;BME280;51033;42.648;23.292;2024-02-26T05:06:38;93330.63;;;10.12;55.22
30935;BME280;51033;42.648;23.292;2024-02-26T05:09:04;93301.97;;;9.97;55.36
30935;BME280;51033;42.648;23.292;2024-02-26T05:11:29;93300.84;;;9.98;55.14
30935;BME280;51033;42.648;23.292;2024-02-26T05:13:54;93341.13;;;10.09;55.52
30935;BME280;51033;42.648;23.292;2024-02-26T05:16:20;93333.34;;;10.04;55.32
30935;BME280;51033;42.648;23.292;2024-02-26T05:18:49;93346.50;;;10.00;55.61
30935;BME280;51033;42.648;23.292;2024-02-26T05:21:15;93344.94;;;9.99;55.89
30935;BME280;51033;42.648;23.292;2024-02-26T05:23:40;93335.75;;;9.88;56.42
30935;BME280;51033;42.648;23.292;2024-02-26T05:26:08;93346.19;;;9.93;56.22
30935;BME280;51033;42.648;23.292;2024-02-26T05:28:33;93344.31;;;10.02;55.73
30935;BME280;51033;42.648;23.292;2024-02-26T05:30:58;93359.91;;;10.04;55.92
30935;BME280;51033;42.648;23.292;2024-02-26T05:33:24;93352.81;;;9.87;56.55
30935;BME280;51033;42.648;23.292;2024-02-26T05:35:50;93371.31;;;10.04;55.96
30935;BME280;51033;42.648;23.292;2024-02-26T05:38:15;93365.88;;;10.01;55.94
30935;BME280;51033;42.648;23.292;2024-02-26T05:40:41;93377.91;;;9.98;56.60
30935;BME280;51033;42.648;23.292;2024-02-26T05:43:06;93369.63;;;10.00;56.80
30935;BME280;51033;42.648;23.292;2024-02-26T05:45:31;93363.88;;;9.89;56.73
30935;BME280;51033;42.648;23.292;2024-02-26T05:47:58;93372.16;;;9.96;56.81
30935;BME280;51033;42.648;23.292;2024-02-26T05:50:23;93375.72;;;10.00;56.65
30935;BME280;51033;42.648;23.292;2024-02-26T05:52:48;93373.34;;;10.07;56.64
30935;BME280;51033;42.648;23.292;2024-02-26T05:55:14;93379.75;;;10.06;56.76
30935;BME280;51033;42.648;23.292;2024-02-26T05:57:39;93375.72;;;10.00;56.49
30935;BME280;51033;42.648;23.292;2024-02-26T06:00:05;93383.97;;;10.07;56.82
30935;BME280;51033;42.648;23.292;2024-02-26T06:02:31;93383.00;;;10.12;56.55
30935;BME280;51033;42.648;23.292;2024-02-26T06:04:56;93354.81;;;9.90;56.42
30935;BME280;51033;42.648;23.292;2024-02-26T06:07:22;93374.44;;;10.06;56.33
30935;BME280;51033;42.648;23.292;2024-02-26T06:09:48;93378.63;;;10.16;56.84
30935;BME280;51033;42.648;23.292;2024-02-26T06:12:13;93383.41;;;10.22;56.71
30935;BME280;51033;42.648;23.292;2024-02-26T06:14:39;93373.91;;;10.21;56.76
30935;BME280;51033;42.648;23.292;2024-02-26T06:17:04;93389.00;;;10.29;56.47
30935;BME280;51033;42.648;23.292;2024-02-26T06:19:30;93362.81;;;10.19;56.29
30935;BME280;51033;42.648;23.292;2024-02-26T06:21:56;93386.34;;;10.29;56.25
30935;BME280;51033;42.648;23.292;2024-02-26T06:24:21;93386.03;;;10.31;56.33
30935;BME280;51033;42.648;23.292;2024-02-26T06:26:47;93386.19;;;10.35;56.59
30935;BME280;51033;42.648;23.292;2024-02-26T06:29:13;93382.97;;;10.20;56.60
30935;BME280;51033;42.648;23.292;2024-02-26T06:31:38;93378.16;;;10.14;56.88
30935;BME280;51033;42.648;23.292;2024-02-26T06:34:04;93380.66;;;10.10;57.36
30935;BME280;51033;42.648;23.292;2024-02-26T06:36:29;93384.88;;;10.11;57.34
30935;BME280;51033;42.648;23.292;2024-02-26T06:38:56;93381.72;;;10.18;57.49
30935;BME280;51033;42.648;23.292;2024-02-26T06:41:22;93392.38;;;10.09;57.64
30935;BME280;51033;42.648;23.292;2024-02-26T06:43:53;93378.53;;;9.95;57.87
30935;BME280;51033;42.648;23.292;2024-02-26T06:46:18;93380.72;;;9.93;57.89
30935;BME280;51033;42.648;23.292;2024-02-26T06:48:43;93353.97;;;9.14;60.01
30935;BME280;51033;42.648;23.292;2024-02-26T06:51:09;93398.88;;;9.36;60.78
30935;BME280;51033;42.648;23.292;2024-02-26T06:53:34;93394.94;;;9.51;60.79
30935;BME280;51033;42.648;23.292;2024-02-26T06:56:00;93387.44;;;9.53;60.43
30935;BME280;51033;42.648;23.292;2024-02-26T06:58:25;93393.09;;;9.34;61.33
30935;BME280;51033;42.648;23.292;2024-02-26T07:00:51;93386.81;;;9.56;60.88
30935;BME280;51033;42.648;23.292;2024-02-26T07:03:16;93392.88;;;9.56;60.20
30935;BME280;51033;42.648;23.292;2024-02-26T07:05:41;93384.63;;;9.40;61.14
30935;BME280;51033;42.648;23.292;2024-02-26T07:08:07;93393.19;;;9.63;60.64
30935;BME280;51033;42.648;23.292;2024-02-26T07:10:32;93405.38;;;9.56;60.36
30935;BME280;51033;42.648;23.292;2024-02-26T07:12:58;93395.50;;;9.65;60.39
30935;BME280;51033;42.648;23.292;2024-02-26T07:15:23;93389.50;;;9.21;61.45
30935;BME280;51033;42.648;23.292;2024-02-26T07:17:49;93403.53;;;9.30;61.76
30935;BME280;51033;42.648;23.292;2024-02-26T07:20:15;93387.78;;;9.08;61.76
30935;BME280;51033;42.648;23.292;2024-02-26T07:22:40;93405.09;;;9.49;61.02
30935;BME280;51033;42.648;23.292;2024-02-26T07:25:07;93393.00;;;9.68;59.68
30935;BME280;51033;42.648;23.292;2024-02-26T07:27:34;93389.41;;;9.73;59.40
30935;BME280;51033;42.648;23.292;2024-02-26T07:29:59;93401.16;;;9.55;59.65
30935;BME280;51033;42.648;23.292;2024-02-26T07:32:24;93407.69;;;9.66;59.52
30935;BME280;51033;42.648;23.292;2024-02-26T07:34:50;93414.56;;;9.67;59.47
30935;BME280;51033;42.648;23.292;2024-02-26T07:37:15;93406.91;;;9.65;59.68
30935;BME280;51033;42.648;23.292;2024-02-26T07:39:41;93412.59;;;9.93;59.43
30935;BME280;51033;42.648;23.292;2024-02-26T07:42:06;93408.19;;;10.06;59.26
30935;BME280;51033;42.648;23.292;2024-02-26T07:44:33;93405.03;;;10.12;58.57
30935;BME280;51033;42.648;23.292;2024-02-26T07:46:59;93401.94;;;10.10;58.48
30935;BME280;51033;42.648;23.292;2024-02-26T07:49:24;93397.69;;;10.09;57.99
30935;BME280;51033;42.648;23.292;2024-02-26T07:51:49;93403.13;;;10.21;58.06
30935;BME280;51033;42.648;23.292;2024-02-26T07:54:15;93402.00;;;10.31;58.30
30935;BME280;51033;42.648;23.292;2024-02-26T07:56:41;93412.19;;;9.82;59.66
30935;BME280;51033;42.648;23.292;2024-02-26T07:59:07;93409.84;;;9.81;59.58
30935;BME280;51033;42.648;23.292;2024-02-26T08:01:32;93398.75;;;9.79;59.08
30935;BME280;51033;42.648;23.292;2024-02-26T08:03:58;93373.59;;;9.21;61.39
30935;BME280;51033;42.648;23.292;2024-02-26T08:06:24;93369.03;;;9.48;60.16
30935;BME280;51033;42.648;23.292;2024-02-26T08:08:50;93410.56;;;10.07;59.01
30935;BME280;51033;42.648;23.292;2024-02-26T08:11:15;93402.00;;;10.22;58.67
30935;BME280;51033;42.648;23.292;2024-02-26T08:13:41;93397.97;;;9.87;58.42
30935;BME280;51033;42.648;23.292;2024-02-26T08:16:07;93396.97;;;10.00;58.51
30935;BME280;51033;42.648;23.292;2024-02-26T08:18:32;93378.09;;;10.22;57.90
30935;BME280;51033;42.648;23.292;2024-02-26T08:20:57;93383.50;;;10.35;57.10
30935;BME280;51033;42.648;23.292;2024-02-26T08:23:23;93381.22;;;10.24;57.30
30935;BME280;51033;42.648;23.292;2024-02-26T08:25:49;93387.03;;;10.56;57.58
30935;BME280;51033;42.648;23.292;2024-02-26T08:28:14;93395.06;;;10.68;56.56
30935;BME280;51033;42.648;23.292;2024-02-26T08:30:39;93373.97;;;10.33;56.76
30935;BME280;51033;42.648;23.292;2024-02-26T08:33:05;93402.06;;;10.14;58.92
30935;BME280;51033;42.648;23.292;2024-02-26T08:35:30;93392.94;;;10.23;58.83
30935;BME280;51033;42.648;23.292;2024-02-26T08:37:55;93390.25;;;10.41;57.60
30935;BME280;51033;42.648;23.292;2024-02-26T08:40:27;93392.41;;;10.68;57.01
30935;BME280;51033;42.648;23.292;2024-02-26T08:42:52;93381.97;;;10.63;56.57
30935;BME280;51033;42.648;23.292;2024-02-26T08:45:18;93370.47;;;10.50;56.83
30935;BME280;51033;42.648;23.292;2024-02-26T08:47:45;93382.72;;;10.43;56.57
30935;BME280;51033;42.648;23.292;2024-02-26T08:50:10;93387.91;;;9.46;60.10
30935;BME280;51033;42.648;23.292;2024-02-26T08:52:37;93387.97;;;9.84;60.69
30935;BME280;51033;42.648;23.292;2024-02-26T08:55:02;93392.75;;;9.99;60.63
30935;BME280;51033;42.648;23.292;2024-02-26T08:57:28;93401.03;;;9.98;59.46
30935;BME280;51033;42.648;23.292;2024-02-26T08:59:53;93400.78;;;10.20;59.12
30935;BME280;51033;42.648;23.292;2024-02-26T09:02:19;93390.78;;;9.79;60.90
30935;BME280;51033;42.648;23.292;2024-02-26T09:04:45;93337.00;;;9.91;60.02
30935;BME280;51033;42.648;23.292;2024-02-26T09:07:10;93393.09;;;9.89;59.98
30935;BME280;51033;42.648;23.292;2024-02-26T09:09:36;93386.13;;;9.76;59.36
30935;BME280;51033;42.648;23.292;2024-02-26T09:12:02;93380.19;;;9.70;59.14
30935;BME280;51033;42.648;23.292;2024-02-26T09:14:27;93386.22;;;9.07;60.53
30935;BME280;51033;42.648;23.292;2024-02-26T09:16:52;93391.25;;;9.17;60.53
30935;BME280;51033;42.648;23.292;2024-02-26T09:19:18;93384.03;;;9.43;61.39
30935;BME280;51033;42.648;23.292;2024-02-26T09:21:44;93384.22;;;9.21;61.10
30935;BME280;51033;42.648;23.292;2024-02-26T09:24:11;93380.78;;;8.95;62.42
30935;BME280;51033;42.648;23.292;2024-02-26T09:26:36;93386.56;;;9.14;62.37
30935;BME280;51033;42.648;23.292;2024-02-26T09:29:02;93357.06;;;8.98;61.81
30935;BME280;51033;42.648;23.292;2024-02-26T09:31:29;93370.00;;;9.09;62.50
30935;BME280;51033;42.648;23.292;2024-02-26T09:33:54;93337.88;;;8.93;61.74
30935;BME280;51033;42.648;23.292;2024-02-26T09:36:20;93370.66;;;9.14;61.60
30935;BME280;51033;42.648;23.292;2024-02-26T09:38:46;93352.22;;;9.09;61.55
30935;BME280;51033;42.648;23.292;2024-02-26T09:41:14;93370.19;;;8.95;61.60
30935;BME280;51033;42.648;23.292;2024-02-26T09:43:45;93369.22;;;8.82;62.16
30935;BME280;51033;42.648;23.292;2024-02-26T09:46:13;93323.69;;;8.63;62.14
30935;BME280;51033;42.648;23.292;2024-02-26T09:48:42;93356.91;;;8.86;62.07
30935;BME280;51033;42.648;23.292;2024-02-26T09:51:10;93349.09;;;8.73;61.48
30935;BME280;51033;42.648;23.292;2024-02-26T09:53:38;93358.31;;;8.84;61.63
30935;BME280;51033;42.648;23.292;2024-02-26T09:56:06;93352.25;;;8.75;62.35
30935;BME280;51033;42.648;23.292;2024-02-26T09:58:33;93347.25;;;8.73;61.79
30935;BME280;51033;42.648;23.292;2024-02-26T10:01:00;93330.41;;;8.61;62.20
30935;BME280;51033;42.648;23.292;2024-02-26T10:03:31;93347.38;;;8.77;61.84
30935;BME280;51033;42.648;23.292;2024-02-26T10:05:59;93319.16;;;8.46;62.05
30935;BME280;51033;42.648;23.292;2024-02-26T10:08:25;93345.66;;;8.81;62.46
30935;BME280;51033;42.648;23.292;2024-02-26T10:10:52;93321.34;;;8.87;61.88
30935;BME280;51033;42.648;23.292;2024-02-26T10:13:19;93339.91;;;9.13;61.07
30935;BME280;51033;42.648;23.292;2024-02-26T10:15:45;93336.59;;;9.08;61.23
30935;BME280;51033;42.648;23.292;2024-02-26T10:18:11;93324.72;;;9.05;61.55
30935;BME280;51033;42.648;23.292;2024-02-26T10:20:36;93330.03;;;9.05;61.28
30935;BME280;51033;42.648;23.292;2024-02-26T10:23:03;93324.28;;;9.12;60.96
30935;BME280;51033;42.648;23.292;2024-02-26T10:25:28;93325.03;;;9.29;61.67
30935;BME280;51033;42.648;23.292;2024-02-26T10:27:59;93316.91;;;9.34;60.03
30935;BME280;51033;42.648;23.292;2024-02-26T10:30:27;93316.47;;;9.24;60.35
30935;BME280;51033;42.648;23.292;2024-02-26T10:32:52;93309.09;;;9.29;60.07
30935;BME280;51033;42.648;23.292;2024-02-26T10:35:19;93296.31;;;9.31;59.98
30935;BME280;51033;42.648;23.292;2024-02-26T10:37:47;93303.97;;;9.24;59.27
30935;BME280;51033;42.648;23.292;2024-02-26T10:40:14;93308.53;;;9.15;59.35
30935;BME280;51033;42.648;23.292;2024-02-26T10:42:41;93293.72;;;9.14;59.97
30935;BME280;51033;42.648;23.292;2024-02-26T10:45:07;93299.78;;;9.06;59.99
30935;BME280;51033;42.648;23.292;2024-02-26T10:47:37;93296.03;;;9.07;59.33
30935;BME280;51033;42.648;23.292;2024-02-26T10:50:04;93291.50;;;9.16;59.24
30935;BME280;51033;42.648;23.292;2024-02-26T10:52:34;93276.84;;;9.19;58.91
30935;BME280;51033;42.648;23.292;2024-02-26T10:55:04;93283.53;;;9.33;58.64
30935;BME280;51033;42.648;23.292;2024-02-26T10:57:51;93285.06;;;9.34;58.75
30935;BME280;51033;42.648;23.292;2024-02-26T11:00:18;93285.22;;;9.38;58.89
30935;BME280;51033;42.648;23.292;2024-02-26T11:02:45;93282.44;;;9.26;58.75
30935;BME280;51033;42.648;23.292;2024-02-26T11:05:12;93283.63;;;9.45;58.64
30935;BME280;51033;42.648;23.292;2024-02-26T11:07:37;93281.81;;;9.29;57.86
30935;BME280;51033;42.648;23.292;2024-02-26T11:10:04;93285.41;;;9.24;58.17
30935;BME280;51033;42.648;23.292;2024-02-26T11:12:32;93280.72;;;9.21;59.04
30935;BME280;51033;42.648;23.292;2024-02-26T11:14:58;93286.03;;;9.21;57.75
30935;BME280;51033;42.648;23.292;2024-02-26T11:17:27;93252.19;;;9.01;57.97
30935;BME280;51033;42.648;23.292;2024-02-26T11:19:55;93284.13;;;9.30;57.83
30935;BME280;51033;42.648;23.292;2024-02-26T11:22:21;93287.13;;;9.29;57.50
30935;BME280;51033;42.648;23.292;2024-02-26T11:24:48;93272.59;;;9.26;57.49
30935;BME280;51033;42.648;23.292;2024-02-26T11:27:16;93280.88;;;9.25;57.81
30935;BME280;51033;42.648;23.292;2024-02-26T11:29:47;93286.75;;;9.48;57.95
30935;BME280;51033;42.648;23.292;2024-02-26T11:32:13;93279.75;;;9.43;57.00
30935;BME280;51033;42.648;23.292;2024-02-26T11:34:40;93279.22;;;9.58;57.59
30935;BME280;51033;42.648;23.292;2024-02-26T11:37:13;93269.81;;;9.61;57.06
30935;BME280;51033;42.648;23.292;2024-02-26T11:39:42;93276.91;;;9.39;57.00
30935;BME280;51033;42.648;23.292;2024-02-26T11:42:08;93271.00;;;9.42;57.27
30935;BME280;51033;42.648;23.292;2024-02-26T11:44:34;93277.09;;;9.34;57.63
30935;BME280;51033;42.648;23.292;2024-02-26T11:47:22;93269.13;;;9.34;57.45
30935;BME280;51033;42.648;23.292;2024-02-26T11:49:48;93264.25;;;9.45;56.90
30935;BME280;51033;42.648;23.292;2024-02-26T11:52:14;93272.03;;;9.50;57.57
30935;BME280;51033;42.648;23.292;2024-02-26T11:54:53;93254.06;;;9.56;57.09
30935;BME280;51033;42.648;23.292;2024-02-26T11:57:25;93261.75;;;9.49;56.62
30935;BME280;51033;42.648;23.292;2024-02-26T11:59:53;93240.59;;;9.31;56.75
30935;BME280;51033;42.648;23.292;2024-02-26T12:05:17;93267.59;;;9.71;56.10
30935;BME280;51033;42.648;23.292;2024-02-26T12:08:01;93278.16;;;9.80;55.83
30935;BME280;51033;42.648;23.292;2024-02-26T12:10:39;93262.28;;;9.71;55.15
30935;BME280;51033;42.648;23.292;2024-02-26T12:13:12;93265.72;;;9.72;54.83
30935;BME280;51033;42.648;23.292;2024-02-26T12:15:54;93242.88;;;9.41;54.77
30935;BME280;51033;42.648;23.292;2024-02-26T12:18:20;93273.34;;;9.73;54.45
30935;BME280;51033;42.648;23.292;2024-02-26T12:20:46;93263.50;;;9.74;54.58
30935;BME280;51033;42.648;23.292;2024-02-26T12:23:16;93273.94;;;9.79;54.36
30935;BME280;51033;42.648;23.292;2024-02-26T12:25:44;93259.47;;;9.68;54.33
30935;BME280;51033;42.648;23.292;2024-02-26T12:28:14;93274.47;;;9.93;53.95
30935;BME280;51033;42.648;23.292;2024-02-26T12:30:39;93276.69;;;9.91;53.70
30935;BME280;51033;42.648;23.292;2024-02-26T12:33:04;93277.91;;;9.94;53.15
30935;BME280;51033;42.648;23.292;2024-02-26T12:35:31;93281.63;;;10.01;53.16
30935;BME280;51033;42.648;23.292;2024-02-26T12:37:58;93271.72;;;10.10;52.75
30935;BME280;51033;42.648;23.292;2024-02-26T12:40:23;93275.63;;;10.13;52.60
30935;BME280;51033;42.648;23.292;2024-02-26T12:42:49;93270.91;;;9.89;51.81
30935;BME280;51033;42.648;23.292;2024-02-26T12:45:14;93276.50;;;9.96;52.85
30935;BME280;51033;42.648;23.292;2024-02-26T12:47:45;93275.22;;;10.02;52.76
30935;BME280;51033;42.648;23.292;2024-02-26T12:50:16;93279.84;;;10.14;52.34
30935;BME280;51033;42.648;23.292;2024-02-26T12:52:45;93279.22;;;10.38;52.09